Shawnee Mission, KS (66285)

8:15 PM CDT on September 15, 2014 (GMT -0500)
Milburn | Change Station
CLOSE
Current Station
Personal Weather Station
Location: Overland Park, KS
Elevation: 996 ft
Nearby Weather Stations

Elev 996 ft 39.01 °N, 94.68 °W | Updated 2 minutes ago

Overcast
Overcast
61.7 °F
Feels Like 61.7 °F
N
2.2
Wind Variable Wind from NE
Gusts 6.9 mph

Today
High -- | Low -- °F
--% Chance of Precip.
Yesterday
High -- | Low -- °F
Precip. -- in
7:00 AM 7:26 PM
Waning Gibbous, 50% visible
Pressure 30.18 in
Visibility 10.0 miles
Clouds Overcast 2500 ft
Dew Point 42 °F
Humidity 48%
Rainfall 0.00 in
Snow Depth Not available.
UV 0 out of 12
Pollen 2.50 out of 12
Air Quality Not available.
Flu Activity Not available.
METAR KMKC 160054Z 03012KT 10SM OVC025 17/11 A3019 RMK AO2 SLP220 T01720111

More Conditions Fewer Conditions

Pressure 30.18 in
Visibility 10.0 miles
Clouds Overcast 2500 ft
Dew Point 42 °F
Humidity 48%
Rainfall 0.00 in
Snow Depth Not available.
UV 0 out of 12
Pollen 2.50 out of 12
Air Quality Not available.
Flu Activity Not available.
METAR KMKC 160054Z 03012KT 10SM OVC025 17/11 A3019 RMK AO2 SLP220 T01720111

More Conditions Fewer Conditions

10-Day Weather Forecast

Almanac

Astronomy

Sep. 15, 2014 Rise Set
Actual Time 7:00 AM CDT 7:26 PM CDT
Civil Twilight 6:33 AM CDT 7:53 PM CDT
Nautical Twilight 6:01 AM CDT 8:25 PM CDT
Astronomical Twilight 5:29 AM CDT 8:57 PM CDT
Moon No Moon Rise 1:58 PM CDT (9/15)
Length of Visible Light 13h 20m
Length of Day
12h 26m
Tomorrow will be 2m 30s shorter.
Waning Gibbous, 50% of the Moon is Illuminated
Today
Waning Gibbous
Sep 15
Last Quarter
Sep 24
New
Oct 1
First Quarter
Oct 8
Full

Today's Extremes

State Highs State Lows

Community

WunderPhotos

Upload Photos

1,753,643 photos uploaded!

WunderBlogs® & News

Nearby

Snow Depth

Station Depth Elevation
No new snow has been reported.

Earthquake Activity

City Distance Mag. Time & Date
No recent earthquake activity has been reported nearby.
Minimum magnitude displayed is 2.5.

Coastal Water Temperatures

Place Temperature
No Stations Reporting

Nearby Weather Stations